Time;durP1;ratioP1;P1;durP2;ratioP2;P2;SDS_P1;SDS_P2;PMS_P1;PMS_P2;Temp;Humidity;BMP_temperature;BMP_pressure;BME280_temperature;BME280_humidity;BME280_pressure;Samples;Min_cycle;Max_cycle;Signal;HPM_P1;HPM_P2
2023/09/03 00:02:42;;;;;;;90.57;52.20;;;;;;;12.71;100.00;102188.91;10445255;28;20033;-80
2023/09/03 00:07:42;;;;;;;115.18;63.22;;;;;;;12.63;100.00;102209.47;10446221;28;20041;-79
2023/09/03 00:12:43;;;;;;;128.48;62.15;;;;;;;12.67;100.00;102200.97;10446680;28;20170;-79
2023/09/03 00:17:43;;;;;;;124.90;60.53;;;;;;;12.58;100.00;102196.03;10447584;28;20430;-80
2023/09/03 00:22:44;;;;;;;127.40;65.78;;;;;;;12.53;100.00;102199.22;10449986;28;20043;-80
2023/09/03 00:27:44;;;;;;;138.80;72.32;;;;;;;12.47;100.00;102191.84;10448154;28;20080;-81
2023/09/03 00:32:45;;;;;;;130.50;68.68;;;;;;;12.41;100.00;102192.41;10443750;28;20037;-82
2023/09/03 00:37:46;;;;;;;113.47;57.85;;;;;;;12.31;100.00;102197.91;10447689;28;20045;-80
2023/09/03 00:42:47;;;;;;;219.88;65.07;;;;;;;12.22;100.00;102208.72;10403067;28;20068;-79
2023/09/03 00:47:48;;;;;;;244.02;65.95;;;;;;;12.30;100.00;102211.84;10394538;28;20351;-80
2023/09/03 00:52:48;;;;;;;102.72;57.40;;;;;;;12.22;100.00;102216.59;10386953;28;20049;-80
2023/09/03 00:57:49;;;;;;;101.95;56.92;;;;;;;12.17;100.00;102216.31;10389598;28;20071;-80
2023/09/03 01:02:49;;;;;;;116.35;56.90;;;;;;;12.00;100.00;102230.97;10448724;28;20122;-80
2023/09/03 01:07:50;;;;;;;304.05;75.78;;;;;;;11.81;100.00;102233.19;10413754;28;20048;-80
2023/09/03 01:12:54;;;;;;;104.25;54.35;;;;;;;11.74;100.00;102243.28;10409493;28;20119;-80
2023/09/03 01:18:16;;;;;;;111.53;54.83;;;;;;;11.76;100.00;102246.03;10434954;28;20044;-80
2023/09/03 01:23:34;;;;;;;125.53;61.03;;;;;;;11.86;100.00;102245.81;10471243;28;20036;-81
2023/09/03 01:28:39;;;;;;;114.65;61.13;;;;;;;11.79;100.00;102251.47;10434639;28;20132;-80
2023/09/03 01:33:44;;;;;;;101.50;54.95;;;;;;;11.84;100.00;102251.75;10442649;28;20044;-81
2023/09/03 01:38:45;;;;;;;117.38;59.42;;;;;;;11.75;100.00;102241.59;10385329;28;20045;-80
2023/09/03 01:43:45;;;;;;;116.07;58.72;;;;;;;11.73;100.00;102235.34;10434227;28;20037;-81
2023/09/03 01:48:48;;;;;;;153.48;67.55;;;;;;;11.77;100.00;102234.72;10447156;28;20132;-80
2023/09/03 01:54:01;;;;;;;120.18;59.90;;;;;;;11.77;100.00;102239.97;10441825;28;20056;-80
2023/09/03 01:59:06;;;;;;;164.93;74.28;;;;;;;11.75;100.00;102233.72;10434713;28;20034;-80
2023/09/03 02:04:06;;;;;;;298.25;85.63;;;;;;;11.75;100.00;102226.75;10457183;28;20037;-81
2023/09/03 02:09:07;;;;;;;184.38;80.32;;;;;;;11.81;100.00;102233.19;10404511;28;20072;-80
2023/09/03 02:14:07;;;;;;;185.75;81.80;;;;;;;11.71;100.00;102229.09;10435049;28;20507;-80
2023/09/03 02:19:08;;;;;;;140.43;64.03;;;;;;;11.70;100.00;102237.78;10420702;28;20041;-81
2023/09/03 02:24:09;;;;;;;119.57;57.75;;;;;;;11.66;100.00;102249.75;10465334;28;20052;-82
2023/09/03 02:29:09;;;;;;;114.10;57.60;;;;;;;11.56;100.00;102248.25;10452057;28;20045;-81
2023/09/03 02:34:11;;;;;;;120.93;54.33;;;;;;;11.51;100.00;102260.16;10442611;28;20144;-80
2023/09/03 02:39:12;;;;;;;87.35;48.55;;;;;;;11.48;100.00;102248.56;10457209;28;20049;-80
2023/09/03 02:44:13;;;;;;;86.60;50.77;;;;;;;11.46;100.00;102244.09;10443591;28;20040;-80
2023/09/03 02:49:14;;;;;;;81.38;46.70;;;;;;;11.47;100.00;102255.53;10442457;28;20601;-80
2023/09/03 02:54:15;;;;;;;107.53;51.07;;;;;;;11.45;100.00;102257.13;10441967;28;20051;-80
2023/09/03 02:59:15;;;;;;;107.75;56.65;;;;;;;11.43;100.00;102253.50;10458309;28;20131;-80
2023/09/03 03:04:16;;;;;;;117.93;58.05;;;;;;;11.45;100.00;102275.50;10468915;28;20118;-81
2023/09/03 03:09:16;;;;;;;131.85;65.13;;;;;;;11.45;100.00;102272.88;10434038;28;20111;-80
2023/09/03 03:14:17;;;;;;;184.63;70.15;;;;;;;11.46;100.00;102277.31;10424210;28;20090;-80
2023/09/03 03:19:17;;;;;;;112.97;58.50;;;;;;;11.45;100.00;102273.75;10436442;28;20096;-80
2023/09/03 03:24:19;;;;;;;122.68;61.63;;;;;;;11.50;100.00;102274.06;10470342;28;20545;-91
2023/09/03 03:29:20;;;;;;;139.20;66.75;;;;;;;11.48;100.00;102269.53;10443760;28;20485;-84
2023/09/03 03:34:20;;;;;;;196.95;82.03;;;;;;;11.59;100.00;102248.47;10423302;28;20131;-80
2023/09/03 03:39:21;;;;;;;134.50;65.68;;;;;;;11.53;100.00;102255.94;10410427;28;20060;-81
2023/09/03 03:44:21;;;;;;;150.38;65.18;;;;;;;11.56;100.00;102252.59;10398645;28;20784;-82
2023/09/03 03:49:22;;;;;;;150.70;71.38;;;;;;;11.62;100.00;102246.84;10402107;28;20501;-82
2023/09/03 03:54:22;;;;;;;161.02;77.65;;;;;;;11.52;100.00;102248.88;10394599;28;20041;-81
2023/09/03 03:59:23;;;;;;;170.07;74.30;;;;;;;11.59;100.00;102242.28;10398199;28;20048;-82
2023/09/03 04:04:23;;;;;;;145.13;70.32;;;;;;;11.49;100.00;102253.91;10397667;28;20037;-82
2023/09/03 04:09:24;;;;;;;183.85;78.03;;;;;;;11.42;100.00;102256.94;10400127;28;20151;-80
2023/09/03 04:14:24;;;;;;;154.30;72.13;;;;;;;11.34;100.00;102260.75;10393012;28;20038;-81
2023/09/03 04:19:25;;;;;;;178.77;82.43;;;;;;;11.17;100.00;102260.53;10409166;28;20478;-81
2023/09/03 04:24:25;;;;;;;175.95;75.28;;;;;;;11.04;100.00;102270.97;10398613;28;20124;-81
2023/09/03 04:29:26;;;;;;;170.32;75.13;;;;;;;10.91;100.00;102266.59;10425454;28;20057;-82
2023/09/03 04:34:26;;;;;;;153.70;72.78;;;;;;;10.77;100.00;102276.13;10406430;28;20064;-81
2023/09/03 04:39:27;;;;;;;194.30;76.72;;;;;;;10.75;100.00;102299.59;10442010;28;20073;-81
2023/09/03 04:44:27;;;;;;;163.80;76.40;;;;;;;10.74;100.00;102297.75;10417324;28;20120;-81
2023/09/03 04:49:28;;;;;;;188.32;82.22;;;;;;;10.76;100.00;102304.03;10413085;28;20049;-81
2023/09/03 04:54:31;;;;;;;175.68;73.32;;;;;;;10.82;100.00;102309.69;10407066;28;20033;-81
2023/09/03 04:59:31;;;;;;;164.45;70.97;;;;;;;10.91;100.00;102309.44;10428434;28;20033;-80
2023/09/03 05:04:33;;;;;;;161.63;72.90;;;;;;;10.97;100.00;102324.66;10387849;28;20501;-81
2023/09/03 05:09:33;;;;;;;152.15;73.13;;;;;;;11.13;100.00;102337.13;10394927;28;20286;-81
2023/09/03 05:14:34;;;;;;;145.73;71.68;;;;;;;11.25;100.00;102343.19;10412756;28;20120;-81
2023/09/03 05:19:34;;;;;;;148.27;70.75;;;;;;;11.41;100.00;102333.75;10396385;28;20092;-82
2023/09/03 05:24:35;;;;;;;172.32;77.10;;;;;;;11.63;100.00;102325.59;10416002;28;20045;-81
2023/09/03 05:29:35;;;;;;;193.65;91.72;;;;;;;11.86;100.00;102331.47;10403181;28;20071;-81
2023/09/03 05:34:36;;;;;;;200.98;88.78;;;;;;;12.08;100.00;102335.53;10406690;28;20037;-81
2023/09/03 05:39:36;;;;;;;161.70;75.68;;;;;;;12.25;100.00;102334.91;10413292;28;20038;-80
2023/09/03 05:44:37;;;;;;;170.77;83.85;;;;;;;12.41;100.00;102339.44;10384818;28;20507;-80
2023/09/03 05:49:37;;;;;;;169.20;74.43;;;;;;;12.66;100.00;102346.25;10411546;28;20099;-81
2023/09/03 05:54:38;;;;;;;173.27;85.50;;;;;;;12.81;100.00;102350.63;10431976;28;20125;-81
2023/09/03 05:59:39;;;;;;;169.77;78.90;;;;;;;13.11;100.00;102354.22;10397915;28;20044;-81
2023/09/03 06:04:39;;;;;;;157.85;79.25;;;;;;;13.34;100.00;102366.16;10427321;28;20127;-80
2023/09/03 06:09:40;;;;;;;163.02;79.72;;;;;;;13.75;100.00;102360.66;10453447;28;20116;-80
2023/09/03 06:14:41;;;;;;;131.43;70.72;;;;;;;13.94;100.00;102371.44;10423138;28;20437;-80
2023/09/03 06:19:42;;;;;;;133.00;72.25;;;;;;;14.08;100.00;102373.97;10434164;28;20055;-80
2023/09/03 06:24:43;;;;;;;113.30;65.53;;;;;;;14.15;100.00;102386.66;10450023;28;20037;-81
2023/09/03 06:29:44;;;;;;;96.65;56.55;;;;;;;14.26;100.00;102387.25;10428967;28;20388;-83
2023/09/03 06:34:45;;;;;;;84.07;54.38;;;;;;;14.60;100.00;102388.25;10441166;28;20044;-81
2023/09/03 06:39:45;;;;;;;76.43;50.05;;;;;;;15.07;100.00;102394.31;10431256;28;20043;-81
2023/09/03 06:44:52;;;;;;;61.85;42.80;;;;;;;15.43;100.00;102393.56;10427748;28;20060;-81
2023/09/03 06:49:52;;;;;;;52.45;39.53;;;;;;;16.49;100.00;102399.69;10434087;28;20182;-81
2023/09/03 06:54:53;;;;;;;39.88;31.83;;;;;;;16.62;100.00;102401.19;10446608;28;20362;-81
2023/09/03 06:59:54;;;;;;;40.13;31.15;;;;;;;17.15;100.00;102401.88;10429006;28;20101;-80
2023/09/03 07:04:56;;;;;;;32.35;28.85;;;;;;;17.30;100.00;102401.69;10433346;28;20045;-80
2023/09/03 07:09:57;;;;;;;29.58;25.90;;;;;;;17.25;100.00;102395.28;10442180;28;20036;-81
2023/09/03 07:14:57;;;;;;;32.03;26.35;;;;;;;17.59;100.00;102395.00;10417590;28;20136;-82
2023/09/03 07:19:58;;;;;;;30.23;23.55;;;;;;;17.96;100.00;102342.69;10386033;28;20037;-79
2023/09/03 07:24:59;;;;;;;39.17;24.73;;;;;;;18.71;100.00;102321.75;10418035;28;20122;-81
2023/09/03 07:30:00;;;;;;;30.73;24.47;;;;;;;19.42;100.00;102350.84;10391574;28;20037;-83
2023/09/03 07:35:00;;;;;;;28.00;23.63;;;;;;;19.90;100.00;102360.44;10435603;28;20166;-83
2023/09/03 07:40:01;;;;;;;26.20;21.47;;;;;;;21.28;100.00;102371.63;10399892;28;20079;-81
2023/09/03 07:45:02;;;;;;;26.90;22.20;;;;;;;21.77;100.00;102396.06;10454631;28;20444;-81
2023/09/03 07:50:05;;;;;;;26.27;23.17;;;;;;;22.03;100.00;102413.53;10368461;28;20119;-83
2023/09/03 07:55:06;;;;;;;29.33;23.25;;;;;;;22.68;100.00;102429.34;10455466;28;20044;-91
2023/09/03 08:00:07;;;;;;;27.10;22.35;;;;;;;23.53;100.00;102445.28;10420164;28;20181;-82
2023/09/03 08:05:11;;;;;;;25.55;22.15;;;;;;;24.43;100.00;102446.81;10421206;28;20041;-83
2023/09/03 08:10:12;;;;;;;25.75;21.08;;;;;;;25.56;100.00;102495.66;10447021;28;20072;-86
2023/09/03 08:15:13;;;;;;;23.97;20.13;;;;;;;25.60;100.00;102501.06;10424151;28;20046;-83
2023/09/03 08:20:14;;;;;;;26.70;22.27;;;;;;;25.50;100.00;102496.50;10433628;28;20041;-84
2023/09/03 08:25:15;;;;;;;26.50;22.60;;;;;;;25.04;100.00;102510.16;10430101;28;20412;-81
2023/09/03 08:30:17;;;;;;;21.50;19.30;;;;;;;24.84;100.00;102507.25;10445662;28;20033;-81
2023/09/03 08:35:17;;;;;;;22.80;19.23;;;;;;;25.21;100.00;102521.13;10388872;28;20473;-81
2023/09/03 08:40:18;;;;;;;17.03;15.27;;;;;;;25.56;100.00;102531.41;10410456;28;20040;-81
2023/09/03 08:45:19;;;;;;;18.98;14.55;;;;;;;25.34;100.00;102533.78;10457281;28;20047;-86
2023/09/03 08:50:19;;;;;;;20.13;13.57;;;;;;;25.75;100.00;102521.75;10454863;28;20060;-87
2023/09/03 08:55:20;;;;;;;18.87;13.57;;;;;;;27.44;100.00;102534.63;10413408;28;20046;-86
2023/09/03 09:00:21;;;;;;;16.47;12.50;;;;;;;27.99;100.00;102558.09;10396597;28;20037;-86
2023/09/03 09:05:22;;;;;;;16.38;12.55;;;;;;;27.84;100.00;102554.47;10446654;28;20037;-86
2023/09/03 09:10:23;;;;;;;15.27;11.83;;;;;;;28.23;100.00;102550.97;10444315;28;20404;-81
2023/09/03 09:15:24;;;;;;;19.23;12.02;;;;;;;28.82;95.51;102559.03;10413768;28;20127;-83
2023/09/03 09:20:25;;;;;;;16.50;13.60;;;;;;;28.93;96.20;102564.41;10445664;28;20133;-82
2023/09/03 09:25:25;;;;;;;15.93;11.93;;;;;;;29.36;100.00;102560.63;10444990;28;20441;-80
2023/09/03 09:30:26;;;;;;;13.20;11.80;;;;;;;29.54;97.38;102559.69;10435411;28;20054;-87
2023/09/03 09:35:26;;;;;;;15.32;11.07;;;;;;;29.53;97.02;102576.78;10461019;28;20129;-82
2023/09/03 09:40:28;;;;;;;13.30;11.53;;;;;;;29.80;100.00;102572.13;10453699;28;20040;-80
2023/09/03 09:45:29;;;;;;;10.43;8.68;;;;;;;29.66;80.11;102562.31;10469021;28;20281;-81
2023/09/03 09:50:30;;;;;;;;;;;;;;;29.85;82.27;102570.31;10457544;28;20033;-81
2023/09/03 09:55:32;;;;;;;12.40;10.37;;;;;;;30.11;84.73;102566.56;10444869;28;19920;-81
2023/09/03 10:00:33;;;;;;;12.32;8.00;;;;;;;29.89;84.42;102562.16;10443162;28;20044;-81
2023/09/03 10:05:34;;;;;;;13.10;7.47;;;;;;;30.00;100.00;102559.44;10477015;28;20120;-80
2023/09/03 10:10:34;;;;;;;9.32;6.88;;;;;;;30.01;87.95;102554.91;10443769;28;20040;-81
2023/09/03 10:15:35;;;;;;;8.40;7.50;;;;;;;28.11;79.92;102546.47;10443866;28;20158;-80
2023/09/03 10:20:35;;;;;;;7.03;6.27;;;;;;;26.51;100.00;102543.03;10459181;28;20272;-81
2023/09/03 10:25:36;;;;;;;9.40;7.07;;;;;;;26.29;100.00;102542.88;10442135;28;20404;-81
2023/09/03 10:30:39;;;;;;;9.80;7.47;;;;;;;26.32;100.00;102553.63;10458671;28;20043;-81
2023/09/03 10:35:40;;;;;;;10.48;6.72;;;;;;;27.29;100.00;102546.22;10494533;28;20507;-81
2023/09/03 10:40:40;;;;;;;11.37;6.80;;;;;;;27.35;100.00;102544.47;10479104;28;20051;-80
2023/09/03 10:46:06;;;;;;;7.97;5.53;;;;;;;27.38;100.00;102544.47;10449867;28;20090;-80
2023/09/03 10:51:07;;;;;;;7.75;6.95;;;;;;;27.35;99.57;102543.53;10458671;28;20123;-80
2023/09/03 10:56:15;;;;;;;7.00;6.03;;;;;;;27.74;100.00;102533.84;10499070;28;20036;-80
2023/09/03 11:01:17;;;;;;;9.80;6.32;;;;;;;27.85;100.00;102540.13;10479164;28;20124;-80
2023/09/03 11:06:24;;;;;;;7.82;5.07;;;;;;;27.87;100.00;102537.47;10441492;28;20475;-80
2023/09/03 11:11:25;;;;;;;8.32;5.75;;;;;;;28.91;83.82;102544.66;10425359;28;20048;-80
2023/09/03 11:16:33;;;;;;;6.97;4.90;;;;;;;29.04;95.60;102543.72;10423671;28;20045;-80
2023/09/03 11:21:34;;;;;;;5.18;3.88;;;;;;;28.93;77.92;102543.72;10443063;28;20500;-80
2023/09/03 11:26:35;;;;;;;9.15;5.95;;;;;;;27.84;100.00;102556.28;10440886;28;20037;-81
2023/09/03 11:31:35;;;;;;;6.55;4.40;;;;;;;27.12;96.21;102547.03;10439435;28;20044;-81
2023/09/03 11:36:36;;;;;;;6.07;4.00;;;;;;;28.37;100.00;102542.91;10399347;28;20454;-80
2023/09/03 11:41:36;;;;;;;5.30;3.73;;;;;;;28.83;94.45;102531.19;10449229;28;20032;-80
2023/09/03 11:46:37;;;;;;;7.10;3.53;;;;;;;28.32;89.06;102528.53;10442053;28;20528;-80
2023/09/03 11:51:40;;;;;;;4.97;2.83;;;;;;;28.85;80.08;102537.47;10407562;28;20040;-87
2023/09/03 11:56:40;;;;;;;5.57;3.55;;;;;;;29.80;59.94;102539.75;10442325;28;20049;-83
2023/09/03 12:01:41;;;;;;;5.03;2.67;;;;;;;29.34;54.19;102552.56;10447122;28;20493;-83
2023/09/03 12:06:42;;;;;;;5.90;2.83;;;;;;;29.20;61.41;102544.53;10437172;28;20029;-81
2023/09/03 12:11:43;;;;;;;3.75;2.70;;;;;;;29.15;55.71;102544.56;10427867;28;20493;-81
2023/09/03 12:16:47;;;;;;;8.33;2.53;;;;;;;29.05;60.91;102549.97;10432449;28;20064;-81
2023/09/03 12:21:51;;;;;;;4.40;2.60;;;;;;;29.14;74.88;102552.63;10431687;28;20489;-81
2023/09/03 12:27:08;;;;;;;2.90;2.10;;;;;;;28.85;69.67;102550.94;10432385;28;20572;-81
2023/09/03 12:32:10;;;;;;;4.63;3.55;;;;;;;29.22;62.89;102550.81;10428518;28;20759;-81
2023/09/03 12:37:11;;;;;;;5.50;3.95;;;;;;;29.59;63.87;102550.66;10451020;28;20073;-81
2023/09/03 12:42:11;;;;;;;7.23;4.30;;;;;;;29.39;55.10;102547.16;10481879;28;20097;-79
2023/09/03 12:47:12;;;;;;;4.80;3.60;;;;;;;29.35;77.22;102556.16;10459614;28;20048;-79
2023/09/03 12:52:12;;;;;;;7.47;3.17;;;;;;;28.96;57.77;102549.09;10480561;28;20107;-79
2023/09/03 12:57:13;;;;;;;6.13;3.33;;;;;;;29.59;55.20;102552.47;10419267;28;20046;-78
2023/09/03 13:02:14;;;;;;;4.23;2.77;;;;;;;30.32;49.92;102557.38;10448603;28;20619;-78
2023/09/03 13:07:15;;;;;;;6.13;3.20;;;;;;;30.09;61.64;102552.19;10444206;28;20059;-78
2023/09/03 13:12:15;;;;;;;4.13;2.40;;;;;;;30.64;50.32;102540.00;10452340;28;20106;-78
2023/09/03 13:17:16;;;;;;;5.70;2.30;;;;;;;30.65;57.38;102543.59;10446701;28;20436;-79
2023/09/03 13:22:16;;;;;;;4.82;2.35;;;;;;;30.55;56.61;102542.75;10469874;28;20033;-78
2023/09/03 13:27:17;;;;;;;4.27;2.17;;;;;;;30.73;43.94;102539.91;10485320;28;20507;-79
2023/09/03 13:32:18;;;;;;;5.00;2.63;;;;;;;30.38;53.43;102543.81;10448122;28;20747;-78
2023/09/03 13:37:18;;;;;;;4.87;2.67;;;;;;;29.93;56.90;102540.56;10455835;28;20124;-78
2023/09/03 13:42:19;;;;;;;6.40;2.63;;;;;;;27.61;57.33;102543.69;10460664;28;20071;-78
2023/09/03 13:47:19;;;;;;;4.33;2.47;;;;;;;28.02;70.03;102541.94;10448275;28;20037;-77
2023/09/03 13:52:20;;;;;;;3.10;2.07;;;;;;;28.43;66.33;102530.31;10441592;28;20037;-77
2023/09/03 13:57:20;;;;;;;3.13;2.13;;;;;;;28.69;71.35;102537.47;10478748;28;20041;-78
2023/09/03 14:02:23;;;;;;;5.30;2.37;;;;;;;28.56;80.70;102538.38;10427421;28;20039;-78
2023/09/03 14:07:23;;;;;;;7.75;2.35;;;;;;;28.56;95.49;102543.75;10498116;28;20575;-78
2023/09/03 14:12:26;;;;;;;5.50;3.13;;;;;;;28.19;95.41;102541.09;10518740;28;20036;-78
2023/09/03 14:17:27;;;;;;;5.90;3.83;;;;;;;28.61;73.86;102531.19;10464874;28;20040;-78
2023/09/03 14:22:27;;;;;;;6.80;2.40;;;;;;;29.02;64.76;102530.22;10455805;28;20037;-79
2023/09/03 14:27:29;;;;;;;7.07;2.17;;;;;;;29.56;59.71;102536.31;10442994;28;20040;-79
2023/09/03 14:32:29;;;;;;;7.28;2.22;;;;;;;29.91;56.29;102529.78;10442551;28;20393;-78
2023/09/03 14:37:30;;;;;;;4.73;2.50;;;;;;;30.15;58.56;102534.13;10447004;28;20048;-77
2023/09/03 14:42:30;;;;;;;3.90;2.40;;;;;;;30.03;51.68;102531.50;10451334;28;20473;-78
2023/09/03 14:47:34;;;;;;;3.85;2.28;;;;;;;29.52;73.22;102531.84;10429331;28;20320;-77
2023/09/03 14:52:40;;;;;;;4.93;2.85;;;;;;;29.29;79.50;102539.09;10441872;28;20079;-77
2023/09/03 14:57:41;;;;;;;7.37;2.47;;;;;;;29.33;77.03;102528.28;10446468;28;20191;-78
2023/09/03 15:02:41;;;;;;;6.03;2.80;;;;;;;29.49;87.96;102535.44;10436018;28;20033;-78
2023/09/03 15:07:42;;;;;;;4.80;2.43;;;;;;;28.91;66.37;102529.34;10450627;28;20083;-78
2023/09/03 15:12:43;;;;;;;5.60;2.67;;;;;;;28.72;78.33;102526.69;10447141;28;20047;-78
2023/09/03 15:17:43;;;;;;;3.60;2.80;;;;;;;28.55;78.18;102529.41;10445946;28;20040;-79
2023/09/03 15:22:44;;;;;;;5.23;3.30;;;;;;;28.02;65.22;102528.50;10447557;28;20119;-78
2023/09/03 15:27:44;;;;;;;4.50;2.50;;;;;;;27.55;96.66;102528.41;10457577;28;20515;-78
2023/09/03 15:32:45;;;;;;;5.17;2.77;;;;;;;27.40;98.44;102521.19;10432271;28;20100;-81
2023/09/03 15:37:45;;;;;;;4.13;3.10;;;;;;;26.92;81.64;102520.97;10392493;28;20048;-83
2023/09/03 15:42:46;;;;;;;4.37;2.83;;;;;;;26.27;100.00;102528.53;10420442;28;20511;-82
2023/09/03 15:47:46;;;;;;;4.37;2.53;;;;;;;25.99;100.00;102522.88;10448533;28;20067;-82
2023/09/03 15:52:47;;;;;;;8.20;3.27;;;;;;;24.72;100.00;102513.25;10485076;28;20450;-80
2023/09/03 15:57:47;;;;;;;3.77;2.13;;;;;;;23.99;100.00;102512.06;10447046;28;20052;-82
2023/09/03 16:02:48;;;;;;;4.87;2.43;;;;;;;23.46;100.00;102527.13;10441673;28;20037;-81
2023/09/03 16:07:48;;;;;;;4.70;2.97;;;;;;;22.80;100.00;102475.84;10460838;28;20040;-81
2023/09/03 16:12:49;;;;;;;3.50;2.23;;;;;;;22.34;100.00;102480.94;10446966;28;20040;-81
2023/09/03 16:17:50;;;;;;;6.63;3.57;;;;;;;21.80;100.00;102465.41;10436435;28;20072;-80
2023/09/03 16:22:51;;;;;;;5.67;2.33;;;;;;;21.44;100.00;102435.97;10448141;28;20068;-81
2023/09/03 16:27:51;;;;;;;7.63;5.20;;;;;;;21.18;100.00;102430.81;10443759;28;20056;-82
2023/09/03 16:32:52;;;;;;;5.27;3.17;;;;;;;21.02;100.00;102425.03;10464446;28;20127;-79
2023/09/03 16:37:53;;;;;;;4.40;2.80;;;;;;;20.91;100.00;102415.84;10466160;28;20033;-77
2023/09/03 16:42:53;;;;;;;4.70;3.20;;;;;;;20.97;100.00;102434.66;10478406;28;20041;-78
2023/09/03 16:47:54;;;;;;;4.70;2.73;;;;;;;20.80;100.00;102423.53;10444285;28;20508;-77
2023/09/03 16:52:54;;;;;;;6.77;4.30;;;;;;;20.58;100.00;102424.56;10470876;28;20128;-79
2023/09/03 16:57:55;;;;;;;7.47;3.63;;;;;;;20.36;100.00;102411.53;10478231;28;20056;-78
2023/09/03 17:02:55;;;;;;;6.37;2.80;;;;;;;20.11;100.00;102412.47;10457059;28;20059;-78
2023/09/03 17:07:56;;;;;;;4.93;3.58;;;;;;;19.84;100.00;102386.75;10447044;28;20051;-78
2023/09/03 17:12:56;;;;;;;4.87;3.10;;;;;;;19.42;100.00;102388.00;10444711;28;20039;-77
2023/09/03 17:17:57;;;;;;;6.10;3.53;;;;;;;19.15;100.00;102374.63;10484820;28;20045;-78
2023/09/03 17:22:57;;;;;;;4.57;3.60;;;;;;;18.96;100.00;102379.25;10477555;28;20435;-78
2023/09/03 17:27:58;;;;;;;6.60;2.97;;;;;;;18.96;100.00;102376.59;10446433;28;20380;-78
2023/09/03 17:32:58;;;;;;;6.83;4.13;;;;;;;18.72;100.00;102369.53;10471307;28;20426;-78
2023/09/03 17:37:59;;;;;;;4.93;3.55;;;;;;;18.73;100.00;102366.03;10457470;28;20425;-79
2023/09/03 17:43:00;;;;;;;6.10;4.25;;;;;;;18.61;100.00;102365.56;10446955;28;20124;-79
2023/09/03 17:48:00;;;;;;;6.97;4.40;;;;;;;18.47;100.00;102360.63;10443762;28;20047;-79
2023/09/03 17:53:01;;;;;;;7.80;4.38;;;;;;;18.29;100.00;102358.16;10447711;28;20037;-79
2023/09/03 17:58:01;;;;;;;5.30;4.80;;;;;;;18.09;100.00;102359.13;10445406;28;20037;-78
2023/09/03 18:03:02;;;;;;;7.07;4.40;;;;;;;17.76;100.00;102357.75;10434204;28;20103;-79
2023/09/03 18:08:03;;;;;;;4.95;3.75;;;;;;;17.43;100.00;102374.91;10443673;28;20075;-79
2023/09/03 18:13:05;;;;;;;7.78;4.82;;;;;;;17.23;100.00;102376.69;10444994;28;20493;-79
2023/09/03 18:18:06;;;;;;;6.60;5.18;;;;;;;16.95;100.00;102379.81;10429078;28;20044;-79
2023/09/03 18:23:07;;;;;;;8.40;5.25;;;;;;;16.73;100.00;102399.97;10479686;28;20400;-79
2023/09/03 18:28:07;;;;;;;8.23;6.10;;;;;;;16.50;100.00;102386.56;10460293;28;20123;-78
2023/09/03 18:33:08;;;;;;;7.50;5.25;;;;;;;16.22;100.00;102392.25;10485744;28;20492;-78
2023/09/03 18:38:08;;;;;;;9.45;4.70;;;;;;;15.95;100.00;102400.63;10442423;28;20116;-79
2023/09/03 18:43:10;;;;;;;7.28;5.75;;;;;;;15.67;100.00;102402.75;10451041;28;20176;-78
2023/09/03 18:48:10;;;;;;;7.00;5.43;;;;;;;15.47;100.00;102406.97;10452856;28;20051;-78
2023/09/03 18:53:12;;;;;;;7.32;5.40;;;;;;;15.30;100.00;102408.75;10432436;28;20141;-78
2023/09/03 18:58:13;;;;;;;9.40;5.68;;;;;;;15.07;100.00;102416.34;10420404;28;20040;-77
2023/09/03 19:03:13;;;;;;;9.52;5.35;;;;;;;14.83;100.00;102419.47;10428959;28;20041;-79
2023/09/03 19:08:14;;;;;;;10.15;5.22;;;;;;;14.64;100.00;102414.84;10435832;28;20055;-79
2023/09/03 19:13:15;;;;;;;9.07;6.63;;;;;;;14.51;100.00;102404.44;10446163;28;20036;-79
2023/09/03 19:18:21;;;;;;;9.45;5.30;;;;;;;14.34;100.00;102408.78;10403386;28;20041;-79
2023/09/03 19:23:22;;;;;;;8.32;6.55;;;;;;;14.28;100.00;102413.69;10434057;28;20052;-79
2023/09/03 19:28:22;;;;;;;7.50;5.53;;;;;;;14.27;100.00;102418.03;10457837;28;20051;-80
2023/09/03 19:33:23;;;;;;;10.52;7.80;;;;;;;14.23;100.00;102424.88;10476318;28;20049;-79
2023/09/03 19:38:28;;;;;;;10.25;6.85;;;;;;;14.15;100.00;102418.25;10456549;28;20112;-79
2023/09/03 19:43:29;;;;;;;9.45;7.88;;;;;;;14.09;100.00;102431.06;10440987;28;20122;-78
2023/09/03 19:48:33;;;;;;;10.73;6.90;;;;;;;13.93;100.00;102423.97;10449310;28;20362;-78
2023/09/03 19:53:35;;;;;;;8.55;6.20;;;;;;;13.84;100.00;102424.38;10441885;28;20043;-78
2023/09/03 19:58:35;;;;;;;8.57;6.13;;;;;;;13.70;100.00;102423.53;10385867;28;20118;-78
2023/09/03 20:03:36;;;;;;;12.48;6.47;;;;;;;13.69;100.00;102421.72;10401804;28;20045;-78
2023/09/03 20:08:36;;;;;;;12.57;6.80;;;;;;;13.63;100.00;102419.63;10463644;28;20439;-79
2023/09/03 20:13:37;;;;;;;10.57;6.53;;;;;;;13.56;100.00;102422.72;10506829;28;20123;-80
2023/09/03 20:18:38;;;;;;;9.75;7.25;;;;;;;13.42;100.00;102427.13;10482347;28;20051;-79
2023/09/03 20:23:38;;;;;;;7.55;6.25;;;;;;;13.30;100.00;102427.25;10465847;28;20041;-79
2023/09/03 20:28:39;;;;;;;11.13;7.97;;;;;;;13.18;100.00;102426.50;10438355;28;20048;-79
2023/09/03 20:33:39;;;;;;;14.43;8.85;;;;;;;13.08;100.00;102432.91;10430838;28;20380;-79
2023/09/03 20:38:40;;;;;;;13.90;9.32;;;;;;;13.05;100.00;102435.34;10425335;28;20046;-79
2023/09/03 20:43:40;;;;;;;13.50;8.50;;;;;;;12.97;100.00;102437.50;10453042;28;20124;-78
2023/09/03 20:48:41;;;;;;;12.63;10.20;;;;;;;12.85;100.00;102439.34;10453128;28;20511;-78
2023/09/03 20:53:41;;;;;;;12.88;10.10;;;;;;;12.76;100.00;102434.41;10459276;28;20115;-78
2023/09/03 20:58:42;;;;;;;12.95;9.52;;;;;;;12.68;100.00;102436.56;10440978;28;20043;-78
2023/09/03 21:03:42;;;;;;;11.18;9.48;;;;;;;12.60;100.00;102425.53;10428060;28;20478;-79
2023/09/03 21:08:43;;;;;;;15.77;11.40;;;;;;;12.56;100.00;102434.03;10404998;28;20575;-78
2023/09/03 21:13:44;;;;;;;13.15;9.30;;;;;;;12.46;100.00;102432.53;10387374;28;20060;-78
2023/09/03 21:18:44;;;;;;;13.45;9.63;;;;;;;12.34;100.00;102435.25;10473649;28;20035;-79
2023/09/03 21:23:45;;;;;;;13.38;10.02;;;;;;;12.28;100.00;102434.84;10491325;28;20068;-79
2023/09/03 21:28:45;;;;;;;13.52;9.07;;;;;;;12.33;100.00;102440.44;10474103;28;20086;-79
2023/09/03 21:33:47;;;;;;;14.15;10.40;;;;;;;12.30;100.00;102443.75;10478023;28;20120;-79
2023/09/03 21:38:49;;;;;;;16.58;12.50;;;;;;;12.24;100.00;102440.72;10459129;28;20041;-80
2023/09/03 21:43:51;;;;;;;15.05;10.52;;;;;;;12.23;100.00;102436.28;10444365;28;20108;-78
2023/09/03 21:48:51;;;;;;;15.18;11.88;;;;;;;12.27;100.00;102445.28;10460899;28;20029;-79
2023/09/03 21:53:52;;;;;;;13.40;10.35;;;;;;;12.11;100.00;102446.88;10446086;28;20044;-79
2023/09/03 21:58:52;;;;;;;19.65;11.20;;;;;;;12.07;100.00;102443.94;10479553;28;20065;-79
2023/09/03 22:03:53;;;;;;;12.45;10.70;;;;;;;12.06;100.00;102450.00;10477320;28;20037;-79
2023/09/03 22:08:53;;;;;;;14.73;10.98;;;;;;;12.00;100.00;102453.13;10452244;28;20037;-80
2023/09/03 22:13:54;;;;;;;13.13;11.05;;;;;;;11.89;100.00;102444.47;10444318;28;20068;-79
2023/09/03 22:18:54;;;;;;;15.05;11.50;;;;;;;11.84;100.00;102449.44;10450504;28;20040;-79
2023/09/03 22:23:56;;;;;;;16.70;11.43;;;;;;;11.75;100.00;102444.44;10475168;28;20052;-78
2023/09/03 22:28:56;;;;;;;20.90;14.97;;;;;;;11.74;100.00;102434.75;10449524;28;20037;-79
2023/09/03 22:33:57;;;;;;;17.95;12.95;;;;;;;11.71;100.00;102439.81;10408285;28;20120;-79